createdAt,value
2022-09-03T00:00:18.636Z,22.17
2022-09-03T00:01:18.712Z,22.17
2022-09-03T00:02:18.715Z,22.17
2022-09-03T00:03:18.667Z,22.15
2022-09-03T00:04:25.761Z,22.15
2022-09-03T00:05:18.713Z,22.14
2022-09-03T00:06:18.730Z,22.12
2022-09-03T00:07:18.735Z,22.11
2022-09-03T00:08:18.893Z,22.11
2022-09-03T00:09:18.775Z,22.09
2022-09-03T00:10:18.772Z,22.11
2022-09-03T00:11:18.787Z,22.09
2022-09-03T00:12:18.815Z,22.08
2022-09-03T00:13:18.846Z,22.08
2022-09-03T00:14:18.865Z,22.08
2022-09-03T00:15:18.892Z,22.08
2022-09-03T00:16:18.926Z,22.06
2022-09-03T00:17:18.911Z,22.08
2022-09-03T00:18:19.057Z,22.06
2022-09-03T00:19:18.960Z,22.06
2022-09-03T00:20:18.932Z,22.04
2022-09-03T00:21:18.944Z,22.05
2022-09-03T00:22:18.967Z,22.05
2022-09-03T00:23:18.973Z,22.04
2022-09-03T00:24:18.981Z,22.05
2022-09-03T00:25:19.027Z,22.05
2022-09-03T00:26:18.996Z,22.06
2022-09-03T00:27:19.011Z,22.05
2022-09-03T00:28:19.066Z,22.05
2022-09-03T00:29:19.016Z,22.04
2022-09-03T00:30:19.037Z,22.05
2022-09-03T00:31:19.104Z,22.06
2022-09-03T00:32:19.062Z,22.06
2022-09-03T00:33:19.083Z,22.08
2022-09-03T00:34:19.118Z,22.06
2022-09-03T00:35:19.109Z,22.04
2022-09-03T00:36:19.123Z,22.04
2022-09-03T00:37:19.144Z,22.04
2022-09-03T00:38:19.215Z,22.04
2022-09-03T00:39:19.275Z,22.04
2022-09-03T00:40:19.214Z,22.01
2022-09-03T00:41:19.243Z,22.04
2022-09-03T00:42:19.256Z,22.04
2022-09-03T00:43:19.303Z,22.05
2022-09-03T00:44:19.319Z,22.04
2022-09-03T00:45:19.347Z,22.04
2022-09-03T00:46:19.473Z,22.01
2022-09-03T00:47:19.380Z,22.02
2022-09-03T00:48:19.460Z,22.02
2022-09-03T00:49:19.416Z,22.01
2022-09-03T00:50:19.461Z,21.99
2022-09-03T00:51:19.433Z,21.96
2022-09-03T00:52:19.461Z,21.93
2022-09-03T00:53:19.474Z,21.91
2022-09-03T00:54:19.512Z,21.94
2022-09-03T00:55:19.574Z,21.91
2022-09-03T00:56:19.532Z,21.90
2022-09-03T00:57:19.553Z,21.89
2022-09-03T00:58:19.576Z,21.90
2022-09-03T00:59:19.611Z,21.90
2022-09-03T01:00:19.658Z,21.91
2022-09-03T01:01:19.786Z,21.89
2022-09-03T01:02:19.713Z,21.89
2022-09-03T01:03:19.670Z,21.90
2022-09-03T01:04:19.694Z,21.86
2022-09-03T01:05:19.724Z,21.85
2022-09-03T01:06:19.748Z,21.83
2022-09-03T01:07:19.772Z,21.81
2022-09-03T01:08:19.792Z,21.83
2022-09-03T01:09:19.814Z,21.83
2022-09-03T01:10:19.847Z,21.82
2022-09-03T01:11:19.885Z,21.83
2022-09-03T01:12:19.897Z,21.81
2022-09-03T01:13:19.927Z,21.82
2022-09-03T01:14:19.956Z,21.82
2022-09-03T01:15:19.947Z,21.81
2022-09-03T01:16:20.022Z,21.81
2022-09-03T01:17:19.954Z,21.79
2022-09-03T01:18:20.079Z,21.77
2022-09-03T01:19:20.013Z,21.77
2022-09-03T01:20:19.994Z,21.81
2022-09-03T01:21:19.991Z,21.77
2022-09-03T01:22:20.121Z,21.77
2022-09-03T01:23:20.014Z,21.77
2022-09-03T01:24:20.032Z,21.77
2022-09-03T01:25:20.035Z,21.77
2022-09-03T01:26:20.031Z,21.74
2022-09-03T01:27:20.049Z,21.70
2022-09-03T01:28:20.106Z,21.71
2022-09-03T01:29:20.110Z,21.71
2022-09-03T01:30:20.119Z,21.71
2022-09-03T01:31:20.199Z,21.70
2022-09-03T01:32:20.316Z,21.70
2022-09-03T01:33:20.129Z,21.68
2022-09-03T01:34:20.132Z,21.68
2022-09-03T01:35:20.157Z,21.70
2022-09-03T01:36:20.179Z,21.68
2022-09-03T01:37:20.190Z,21.70
2022-09-03T01:38:20.295Z,21.68
2022-09-03T01:39:20.297Z,21.66
2022-09-03T01:40:20.232Z,21.67
2022-09-03T01:41:20.286Z,21.67
2022-09-03T01:42:21.192Z,21.67
2022-09-03T01:43:20.279Z,21.68
2022-09-03T01:44:20.356Z,21.68
2022-09-03T01:45:20.307Z,21.67
2022-09-03T01:46:20.373Z,21.64
2022-09-03T01:47:20.335Z,21.66
2022-09-03T01:48:20.364Z,21.67
2022-09-03T01:49:20.389Z,21.66
2022-09-03T01:50:20.371Z,21.66
2022-09-03T01:51:20.414Z,21.67
2022-09-03T01:52:20.432Z,21.66
2022-09-03T01:53:20.455Z,21.64
2022-09-03T01:54:21.469Z,21.63
2022-09-03T01:55:20.488Z,21.63
2022-09-03T01:56:20.461Z,21.64
2022-09-03T01:57:35.252Z,21.64
2022-09-03T01:58:20.522Z,21.63
2022-09-03T01:59:20.537Z,21.63
2022-09-03T02:00:20.714Z,21.59
2022-09-03T02:01:20.682Z,21.58
2022-09-03T02:02:20.603Z,21.58
2022-09-03T02:03:20.632Z,21.56
2022-09-03T02:04:20.624Z,21.56
2022-09-03T02:05:20.595Z,21.58
2022-09-03T02:06:25.994Z,21.58
2022-09-03T02:07:20.614Z,21.56
2022-09-03T02:08:20.632Z,21.56
2022-09-03T02:09:20.736Z,21.58
2022-09-03T02:10:20.703Z,21.59
2022-09-03T02:11:20.681Z,21.55
2022-09-03T02:12:20.696Z,21.58
2022-09-03T02:13:20.731Z,21.56
2022-09-03T02:14:20.703Z,21.55
2022-09-03T02:15:20.747Z,21.53
2022-09-03T02:16:20.825Z,21.55
2022-09-03T02:17:20.749Z,21.58
2022-09-03T02:18:20.788Z,21.59
2022-09-03T02:19:20.777Z,21.63
2022-09-03T02:20:20.811Z,21.58
2022-09-03T02:21:20.880Z,21.52
2022-09-03T02:22:20.805Z,21.53
2022-09-03T02:23:28.448Z,21.55
2022-09-03T02:24:20.863Z,21.56
2022-09-03T02:25:20.897Z,21.55
2022-09-03T02:26:20.889Z,21.53
2022-09-03T02:27:20.931Z,21.51
2022-09-03T02:28:20.920Z,21.51
2022-09-03T02:29:20.930Z,21.49
2022-09-03T02:30:20.965Z,21.46
2022-09-03T02:31:21.101Z,21.46
2022-09-03T02:32:20.958Z,21.49
2022-09-03T02:33:20.975Z,21.51
2022-09-03T02:34:20.972Z,21.52
2022-09-03T02:35:20.968Z,21.51
2022-09-03T02:36:20.970Z,21.48
2022-09-03T02:37:20.979Z,21.49
2022-09-03T02:38:20.999Z,21.48
2022-09-03T02:39:21.115Z,21.48
2022-09-03T02:40:21.055Z,21.46
2022-09-03T02:41:21.086Z,21.45
2022-09-03T02:42:21.110Z,21.42
2022-09-03T02:43:21.140Z,21.40
2022-09-03T02:44:21.157Z,21.38
2022-09-03T02:45:21.216Z,21.37
2022-09-03T02:46:21.276Z,21.37
2022-09-03T02:47:21.170Z,21.36
2022-09-03T02:48:21.205Z,21.33
2022-09-03T02:49:21.224Z,21.31
2022-09-03T02:50:21.237Z,21.31
2022-09-03T02:51:21.237Z,21.30
2022-09-03T02:52:21.262Z,21.28
2022-09-03T02:53:21.268Z,21.28
2022-09-03T02:54:21.368Z,21.30
2022-09-03T02:55:21.321Z,21.30
2022-09-03T02:56:21.341Z,21.26
2022-09-03T02:57:27.493Z,21.26
2022-09-03T02:58:21.484Z,21.24
2022-09-03T02:59:21.389Z,21.22
2022-09-03T03:00:21.368Z,21.22
2022-09-03T03:01:24.132Z,21.22
2022-09-03T03:02:21.535Z,21.19
2022-09-03T03:03:21.432Z,21.19
2022-09-03T03:04:21.474Z,21.18
2022-09-03T03:05:21.449Z,21.18
2022-09-03T03:06:21.460Z,21.15
2022-09-03T03:07:21.492Z,21.15
2022-09-03T03:08:21.526Z,21.18
2022-09-03T03:09:21.559Z,21.18
2022-09-03T03:10:21.523Z,21.16
2022-09-03T03:11:21.557Z,21.15
2022-09-03T03:12:21.583Z,21.15
2022-09-03T03:13:21.636Z,21.12
2022-09-03T03:14:21.597Z,21.09
2022-09-03T03:15:21.583Z,21.11
2022-09-03T03:16:21.653Z,21.09
2022-09-03T03:17:21.555Z,21.11
2022-09-03T03:18:21.606Z,21.09
2022-09-03T03:19:21.625Z,21.09
2022-09-03T03:20:21.652Z,21.11
2022-09-03T03:21:21.633Z,21.08
2022-09-03T03:22:21.653Z,21.11
2022-09-03T03:23:21.685Z,21.09
2022-09-03T03:24:21.707Z,21.09
2022-09-03T03:25:21.685Z,21.09
2022-09-03T03:26:21.695Z,21.03
2022-09-03T03:27:21.697Z,21.01
2022-09-03T03:28:21.731Z,21.01
2022-09-03T03:29:21.745Z,21.03
2022-09-03T03:30:21.723Z,21.03
2022-09-03T03:31:21.854Z,21.06
2022-09-03T03:32:21.736Z,21.01
2022-09-03T03:33:21.758Z,21.03
2022-09-03T03:34:21.803Z,21.05
2022-09-03T03:35:21.777Z,21.03
2022-09-03T03:36:21.778Z,21.01
2022-09-03T03:37:21.811Z,21.00
2022-09-03T03:38:21.925Z,21.00
2022-09-03T03:39:21.906Z,21.01
2022-09-03T03:40:21.904Z,21.00
2022-09-03T03:41:21.924Z,20.98
2022-09-03T03:42:21.939Z,20.97
2022-09-03T03:43:21.962Z,20.98
2022-09-03T03:44:21.978Z,20.97
2022-09-03T03:45:22.199Z,20.97
2022-09-03T03:46:22.074Z,20.98
2022-09-03T03:47:21.971Z,21.00
2022-09-03T03:48:22.084Z,20.98
2022-09-03T03:49:22.011Z,20.97
2022-09-03T03:50:22.029Z,20.96
2022-09-03T03:51:22.066Z,20.94
2022-09-03T03:52:22.109Z,20.93
2022-09-03T03:53:22.069Z,20.93
2022-09-03T03:54:22.106Z,20.97
2022-09-03T03:55:22.094Z,21.00
2022-09-03T03:56:22.134Z,20.96
2022-09-03T03:57:22.103Z,20.94
2022-09-03T03:58:22.165Z,20.97
2022-09-03T03:59:22.124Z,20.96
2022-09-03T04:00:22.144Z,20.97
2022-09-03T04:01:22.221Z,20.96
2022-09-03T04:02:22.237Z,20.96
2022-09-03T04:03:22.156Z,20.96
2022-09-03T04:04:22.196Z,20.96
2022-09-03T04:05:23.201Z,20.96
2022-09-03T04:06:22.222Z,20.96
2022-09-03T04:07:22.245Z,20.96
2022-09-03T04:08:22.416Z,20.97
2022-09-03T04:09:22.270Z,20.96
2022-09-03T04:10:22.301Z,20.96
2022-09-03T04:11:22.290Z,20.98
2022-09-03T04:12:22.306Z,20.98
2022-09-03T04:13:22.309Z,21.00
2022-09-03T04:14:22.583Z,21.01
2022-09-03T04:15:22.335Z,20.98
2022-09-03T04:16:22.404Z,20.94
2022-09-03T04:17:25.302Z,20.96
2022-09-03T04:18:22.403Z,20.94
2022-09-03T04:19:22.388Z,20.93
2022-09-03T04:20:22.367Z,20.91
2022-09-03T04:21:22.386Z,20.90
2022-09-03T04:22:22.437Z,20.91
2022-09-03T04:23:22.433Z,20.93
2022-09-03T04:24:22.470Z,20.98
2022-09-03T04:25:22.515Z,21.00
2022-09-03T04:26:22.473Z,21.01
2022-09-03T04:27:22.471Z,21.05
2022-09-03T04:28:22.588Z,21.06
2022-09-03T04:29:22.532Z,21.06
2022-09-03T04:30:22.573Z,21.06
2022-09-03T04:31:22.600Z,21.08
2022-09-03T04:32:22.564Z,21.08
2022-09-03T04:33:22.574Z,21.09
2022-09-03T04:34:22.595Z,21.12
2022-09-03T04:35:22.622Z,21.13
2022-09-03T04:36:22.642Z,21.09
2022-09-03T04:37:22.668Z,21.08
2022-09-03T04:38:22.775Z,21.06
2022-09-03T04:39:22.749Z,21.08
2022-09-03T04:40:22.712Z,21.05
2022-09-03T04:41:22.739Z,21.05
2022-09-03T04:42:22.770Z,21.01
2022-09-03T04:43:22.799Z,20.98
2022-09-03T04:44:22.821Z,20.96
2022-09-03T04:45:22.826Z,20.93
2022-09-03T04:46:22.888Z,20.91
2022-09-03T04:47:22.847Z,20.93
2022-09-03T04:48:22.868Z,20.91
2022-09-03T04:49:22.942Z,20.93
2022-09-03T04:50:22.887Z,20.96
2022-09-03T04:51:22.917Z,20.96
2022-09-03T04:52:22.939Z,20.96
2022-09-03T04:53:22.939Z,20.94
2022-09-03T04:54:22.956Z,20.94
2022-09-03T04:55:22.990Z,20.94
2022-09-03T04:56:23.033Z,20.97
2022-09-03T04:57:23.029Z,20.97
2022-09-03T04:58:23.114Z,21.00
2022-09-03T04:59:23.080Z,21.00
2022-09-03T05:00:23.090Z,21.01
2022-09-03T05:01:23.226Z,21.01
2022-09-03T05:02:23.220Z,21.05
2022-09-03T05:03:23.172Z,21.01
2022-09-03T05:04:23.613Z,21.01
2022-09-03T05:05:23.216Z,21.01
2022-09-03T05:06:23.194Z,21.00
2022-09-03T05:07:23.225Z,20.98
2022-09-03T05:08:23.307Z,20.98
2022-09-03T05:09:23.237Z,21.00
2022-09-03T05:10:23.246Z,21.03
2022-09-03T05:11:23.262Z,21.05
2022-09-03T05:12:23.296Z,21.03
2022-09-03T05:13:23.323Z,21.06
2022-09-03T05:14:23.343Z,21.05
2022-09-03T05:15:23.343Z,21.01
2022-09-03T05:16:23.406Z,21.00
2022-09-03T05:17:23.377Z,20.98
2022-09-03T05:18:23.529Z,21.00
2022-09-03T05:19:23.454Z,21.01
2022-09-03T05:20:23.465Z,21.01
2022-09-03T05:21:23.462Z,21.03
2022-09-03T05:22:23.463Z,21.03
2022-09-03T05:23:23.484Z,21.03
2022-09-03T05:24:23.517Z,21.01
2022-09-03T05:25:23.559Z,21.03
2022-09-03T05:26:23.527Z,21.03
2022-09-03T05:27:23.542Z,21.01
2022-09-03T05:28:23.611Z,21.03
2022-09-03T05:29:23.616Z,21.05
2022-09-03T05:30:23.604Z,21.06
2022-09-03T05:31:23.690Z,21.11
2022-09-03T05:32:23.624Z,21.12
2022-09-03T05:33:23.659Z,21.13
2022-09-03T05:34:23.676Z,21.12
2022-09-03T05:35:26.022Z,21.16
2022-09-03T05:36:23.657Z,21.18
2022-09-03T05:37:23.688Z,21.18
2022-09-03T05:38:23.782Z,21.18
2022-09-03T05:39:23.729Z,21.19
2022-09-03T05:40:23.721Z,21.21
2022-09-03T05:41:23.713Z,21.22
2022-09-03T05:42:23.723Z,21.22
2022-09-03T05:43:23.729Z,21.21
2022-09-03T05:44:23.766Z,21.18
2022-09-03T05:45:23.847Z,21.18
2022-09-03T05:46:23.800Z,21.18
2022-09-03T05:47:23.811Z,21.21
2022-09-03T05:48:23.918Z,21.22
2022-09-03T05:49:23.853Z,21.24
2022-09-03T05:50:23.888Z,21.26
2022-09-03T05:51:23.923Z,21.28
2022-09-03T05:52:23.935Z,21.26
2022-09-03T05:53:24.062Z,21.26
2022-09-03T05:54:23.986Z,21.24
2022-09-03T05:55:24.022Z,21.21
2022-09-03T05:56:24.033Z,21.22
2022-09-03T05:57:24.059Z,21.22
2022-09-03T05:58:24.078Z,21.21
2022-09-03T05:59:24.113Z,21.21
2022-09-03T06:00:24.116Z,21.19
2022-09-03T06:01:24.114Z,21.22
2022-09-03T06:02:24.207Z,21.24
2022-09-03T06:03:24.308Z,21.27
2022-09-03T06:04:24.170Z,21.26
2022-09-03T06:05:24.180Z,21.27
2022-09-03T06:06:24.186Z,21.30
2022-09-03T06:07:24.196Z,21.31
2022-09-03T06:08:24.212Z,21.31
2022-09-03T06:09:24.253Z,21.34
2022-09-03T06:10:27.031Z,21.38
2022-09-03T06:11:24.292Z,21.38
2022-09-03T06:12:24.310Z,21.40
2022-09-03T06:13:24.510Z,21.43
2022-09-03T06:14:24.356Z,21.45
2022-09-03T06:15:24.407Z,21.46
2022-09-03T06:16:30.826Z,21.46
2022-09-03T06:17:24.437Z,21.46
2022-09-03T06:18:24.634Z,21.46
2022-09-03T06:19:24.462Z,21.48
2022-09-03T06:20:24.482Z,21.49
2022-09-03T06:21:24.505Z,21.48
2022-09-03T06:22:24.538Z,21.49
2022-09-03T06:23:24.523Z,21.51
2022-09-03T06:24:27.855Z,21.53
2022-09-03T06:25:24.555Z,21.53
2022-09-03T06:26:24.542Z,21.55
2022-09-03T06:27:24.557Z,21.55
2022-09-03T06:28:24.801Z,21.55
2022-09-03T06:29:24.592Z,21.56
2022-09-03T06:30:24.621Z,21.55
2022-09-03T06:31:24.752Z,21.56
2022-09-03T06:32:24.639Z,21.58
2022-09-03T06:33:24.800Z,21.61
2022-09-03T06:34:24.636Z,21.63
2022-09-03T06:35:24.641Z,21.66
2022-09-03T06:36:24.667Z,21.67
2022-09-03T06:37:24.687Z,21.70
2022-09-03T06:38:24.873Z,21.73
2022-09-03T06:39:24.859Z,21.70
2022-09-03T06:40:24.860Z,21.73
2022-09-03T06:41:24.806Z,21.71
2022-09-03T06:42:24.843Z,21.71
2022-09-03T06:43:24.857Z,21.71
2022-09-03T06:44:24.860Z,21.71
2022-09-03T06:45:24.891Z,21.73
2022-09-03T06:46:24.892Z,21.74
2022-09-03T06:47:24.925Z,21.75
2022-09-03T06:48:25.173Z,21.81
2022-09-03T06:49:24.954Z,21.79
2022-09-03T06:50:25.088Z,21.81
2022-09-03T06:51:25.004Z,21.83
2022-09-03T06:52:25.041Z,21.85
2022-09-03T06:53:25.057Z,21.86
2022-09-03T06:54:25.087Z,21.90
2022-09-03T06:55:25.062Z,21.90
2022-09-03T06:56:25.093Z,21.94
2022-09-03T06:57:25.121Z,21.94
2022-09-03T06:58:25.291Z,21.96
2022-09-03T06:59:25.159Z,21.96
2022-09-03T07:00:25.175Z,22.01
2022-09-03T07:01:25.297Z,22.04
2022-09-03T07:02:25.270Z,22.05
2022-09-03T07:03:25.220Z,22.05
2022-09-03T07:04:25.233Z,22.09
2022-09-03T07:05:25.304Z,22.12
2022-09-03T07:06:25.271Z,22.15
2022-09-03T07:07:25.278Z,22.19
2022-09-03T07:08:25.411Z,22.21
2022-09-03T07:09:25.358Z,22.23
2022-09-03T07:10:25.330Z,22.24
2022-09-03T07:11:25.342Z,22.30
2022-09-03T07:12:25.348Z,22.31
2022-09-03T07:13:25.379Z,22.35
2022-09-03T07:14:25.400Z,22.35
2022-09-03T07:15:25.426Z,22.36
2022-09-03T07:16:25.574Z,22.39
2022-09-03T07:17:25.469Z,22.38
2022-09-03T07:18:25.629Z,22.38
2022-09-03T07:19:25.531Z,22.42
2022-09-03T07:20:25.544Z,22.45
2022-09-03T07:21:25.567Z,22.48
2022-09-03T07:22:26.079Z,22.52
2022-09-03T07:23:25.580Z,22.54
2022-09-03T07:24:25.624Z,22.57
2022-09-03T07:25:25.592Z,22.59
2022-09-03T07:26:25.627Z,22.57
2022-09-03T07:27:25.659Z,22.60
2022-09-03T07:28:25.818Z,22.61
2022-09-03T07:29:25.658Z,22.67
2022-09-03T07:30:25.642Z,22.70
2022-09-03T07:31:25.751Z,22.70
2022-09-03T07:32:25.685Z,22.75
2022-09-03T07:33:25.707Z,22.75
2022-09-03T07:34:26.466Z,22.79
2022-09-03T07:35:25.713Z,22.81
2022-09-03T07:36:25.734Z,22.85
2022-09-03T07:37:25.765Z,22.89
2022-09-03T07:38:25.901Z,22.93
2022-09-03T07:39:25.858Z,22.96
2022-09-03T07:40:25.767Z,22.97
2022-09-03T07:41:28.510Z,23.01
2022-09-03T07:42:25.795Z,23.01
2022-09-03T07:43:25.788Z,23.03
2022-09-03T07:44:25.814Z,23.04
2022-09-03T07:45:25.815Z,23.04
2022-09-03T07:46:25.935Z,23.06
2022-09-03T07:47:27.168Z,23.07
2022-09-03T07:48:25.874Z,23.07
2022-09-03T07:49:25.869Z,23.09
2022-09-03T07:50:25.895Z,23.09
2022-09-03T07:51:25.872Z,23.11
2022-09-03T07:52:25.887Z,23.12
2022-09-03T07:53:25.907Z,23.14
2022-09-03T07:54:25.923Z,23.15
2022-09-03T07:55:25.968Z,23.16
2022-09-03T07:56:25.997Z,23.18
2022-09-03T07:57:25.955Z,23.18
2022-09-03T07:58:26.005Z,23.19
2022-09-03T07:59:26.011Z,23.22
2022-09-03T08:00:26.102Z,23.21
2022-09-03T08:01:26.047Z,23.26
2022-09-03T08:02:26.048Z,23.31
2022-09-03T08:03:26.091Z,23.31
2022-09-03T08:04:26.293Z,23.35
2022-09-03T08:05:26.072Z,23.35
2022-09-03T08:06:26.093Z,23.37
2022-09-03T08:07:26.099Z,23.41
2022-09-03T08:08:26.404Z,23.44
2022-09-03T08:09:26.116Z,23.49
2022-09-03T08:10:26.118Z,23.49
2022-09-03T08:11:26.146Z,23.53
2022-09-03T08:12:26.122Z,23.56
2022-09-03T08:13:27.132Z,23.56
2022-09-03T08:14:26.188Z,23.59
2022-09-03T08:15:26.146Z,23.59
2022-09-03T08:16:26.252Z,23.62
2022-09-03T08:17:26.195Z,23.63
2022-09-03T08:18:26.219Z,23.63
2022-09-03T08:19:26.213Z,23.67
2022-09-03T08:20:26.219Z,23.67
2022-09-03T08:21:26.241Z,23.71
2022-09-03T08:22:26.272Z,23.71
2022-09-03T08:23:26.314Z,23.72
2022-09-03T08:24:26.294Z,23.72
2022-09-03T08:25:26.319Z,23.74
2022-09-03T08:26:26.325Z,23.75
2022-09-03T08:27:26.343Z,23.74
2022-09-03T08:28:26.350Z,23.77
2022-09-03T08:29:26.408Z,23.78
2022-09-03T08:30:26.377Z,23.81
2022-09-03T08:31:26.403Z,23.84
2022-09-03T08:32:26.399Z,23.84
2022-09-03T08:33:26.420Z,23.87
2022-09-03T08:34:26.455Z,23.87
2022-09-03T08:35:26.452Z,23.89
2022-09-03T08:36:26.468Z,23.90
2022-09-03T08:37:26.494Z,23.92
2022-09-03T08:38:26.672Z,23.93
2022-09-03T08:39:26.587Z,23.96
2022-09-03T08:40:26.546Z,23.97
2022-09-03T08:41:26.583Z,23.99
2022-09-03T08:42:26.604Z,24.00
2022-09-03T08:43:26.589Z,24.04
2022-09-03T08:44:26.612Z,24.05
2022-09-03T08:45:26.642Z,24.06
2022-09-03T08:46:26.711Z,24.08
2022-09-03T08:47:26.703Z,24.11
2022-09-03T08:48:27.065Z,24.11
2022-09-03T08:49:26.685Z,24.11
2022-09-03T08:50:26.716Z,24.11
2022-09-03T08:51:26.704Z,24.11
2022-09-03T08:52:26.709Z,24.09
2022-09-03T08:53:26.716Z,24.09
2022-09-03T08:54:26.743Z,24.09
2022-09-03T08:55:26.792Z,24.14
2022-09-03T08:56:26.821Z,24.15
2022-09-03T08:57:26.826Z,24.18
2022-09-03T08:58:26.818Z,24.19
2022-09-03T08:59:27.070Z,24.19
2022-09-03T09:00:26.853Z,24.21
2022-09-03T09:01:26.862Z,24.21
2022-09-03T09:02:26.987Z,24.26
2022-09-03T09:03:26.851Z,24.26
2022-09-03T09:04:26.840Z,24.26
2022-09-03T09:05:26.817Z,24.24
2022-09-03T09:06:26.823Z,24.24
2022-09-03T09:07:26.832Z,24.24
2022-09-03T09:08:26.857Z,24.26
2022-09-03T09:09:26.880Z,24.26
2022-09-03T09:10:26.925Z,24.27
2022-09-03T09:11:26.935Z,24.31
2022-09-03T09:12:26.969Z,24.33
2022-09-03T09:13:26.985Z,24.34
2022-09-03T09:14:27.013Z,24.36
2022-09-03T09:15:27.035Z,24.36
2022-09-03T09:16:27.118Z,24.37
2022-09-03T09:17:27.047Z,24.37
2022-09-03T09:18:27.061Z,24.39
2022-09-03T09:19:27.084Z,24.39
2022-09-03T09:20:27.115Z,24.39
2022-09-03T09:21:31.192Z,24.39
2022-09-03T09:22:27.156Z,24.41
2022-09-03T09:23:27.162Z,24.41
2022-09-03T09:24:27.159Z,24.41
2022-09-03T09:25:27.193Z,24.42
2022-09-03T09:26:27.201Z,24.42
2022-09-03T09:27:27.229Z,24.41
2022-09-03T09:28:27.241Z,24.42
2022-09-03T09:29:27.272Z,24.42
2022-09-03T09:30:27.283Z,24.41
2022-09-03T09:31:27.344Z,24.42
2022-09-03T09:32:27.348Z,24.41
2022-09-03T09:33:27.316Z,24.41
2022-09-03T09:34:27.336Z,24.41
2022-09-03T09:35:27.316Z,24.42
2022-09-03T09:36:27.374Z,24.42
2022-09-03T09:37:27.329Z,24.42
2022-09-03T09:38:27.347Z,24.46
2022-09-03T09:39:27.435Z,24.44
2022-09-03T09:40:27.372Z,24.45
2022-09-03T09:41:29.867Z,24.45
2022-09-03T09:42:27.364Z,24.48
2022-09-03T09:43:27.374Z,24.49
2022-09-03T09:44:27.412Z,24.49
2022-09-03T09:45:27.459Z,24.51
2022-09-03T09:46:27.497Z,24.51
2022-09-03T09:47:27.426Z,24.52
2022-09-03T09:48:27.448Z,24.55
2022-09-03T09:49:27.449Z,24.56
2022-09-03T09:50:27.475Z,24.59
2022-09-03T09:51:27.471Z,24.60
2022-09-03T09:52:27.458Z,24.61
2022-09-03T09:53:27.468Z,24.63
2022-09-03T09:54:27.503Z,24.64
2022-09-03T09:55:27.515Z,24.68
2022-09-03T09:56:27.562Z,24.71
2022-09-03T09:57:27.523Z,24.74
2022-09-03T09:58:27.728Z,24.79
2022-09-03T09:59:27.529Z,24.82
2022-09-03T10:00:27.514Z,24.84
2022-09-03T10:01:27.603Z,24.86
2022-09-03T10:02:27.669Z,24.92
2022-09-03T10:03:27.537Z,24.93
2022-09-03T10:04:32.396Z,24.93
2022-09-03T10:05:27.593Z,24.97
2022-09-03T10:06:27.661Z,24.99
2022-09-03T10:07:27.631Z,25.01
2022-09-03T10:08:27.652Z,25.04
2022-09-03T10:09:31.598Z,25.08
2022-09-03T10:10:27.705Z,25.08
2022-09-03T10:11:27.723Z,25.08
2022-09-03T10:12:27.708Z,25.09
2022-09-03T10:13:27.740Z,25.11
2022-09-03T10:14:27.759Z,25.09
2022-09-03T10:15:27.856Z,25.14
2022-09-03T10:16:27.797Z,25.14
2022-09-03T10:17:36.784Z,25.17
2022-09-03T10:18:28.113Z,25.17
2022-09-03T10:19:27.799Z,25.19
2022-09-03T10:20:27.817Z,25.19
2022-09-03T10:21:27.849Z,25.23
2022-09-03T10:22:27.854Z,25.24
2022-09-03T10:23:27.893Z,25.29
2022-09-03T10:24:27.872Z,25.29
2022-09-03T10:25:27.907Z,25.34
2022-09-03T10:26:27.907Z,25.36
2022-09-03T10:27:27.952Z,25.38
2022-09-03T10:28:28.031Z,25.41
2022-09-03T10:29:27.927Z,25.39
2022-09-03T10:30:27.944Z,25.42
2022-09-03T10:31:28.002Z,25.45
2022-09-03T10:32:36.926Z,25.45
2022-09-03T10:33:27.966Z,25.45
2022-09-03T10:34:27.988Z,25.46
2022-09-03T10:35:27.990Z,25.46
2022-09-03T10:36:28.034Z,25.49
2022-09-03T10:37:28.018Z,25.49
2022-09-03T10:38:28.049Z,25.53
2022-09-03T10:39:28.105Z,25.54
2022-09-03T10:40:28.043Z,25.54
2022-09-03T10:41:28.066Z,25.56
2022-09-03T10:42:28.093Z,25.59
2022-09-03T10:43:28.109Z,25.63
2022-09-03T10:44:28.104Z,25.66
2022-09-03T10:45:28.120Z,25.69
2022-09-03T10:46:28.232Z,25.74
2022-09-03T10:47:28.120Z,25.76
2022-09-03T10:48:28.154Z,25.76
2022-09-03T10:49:28.136Z,25.76
2022-09-03T10:50:28.152Z,25.79
2022-09-03T10:51:28.153Z,25.79
2022-09-03T10:52:28.175Z,25.81
2022-09-03T10:53:28.207Z,25.83
2022-09-03T10:54:28.178Z,25.83
2022-09-03T10:55:28.171Z,25.83
2022-09-03T10:56:28.192Z,25.85
2022-09-03T10:57:28.222Z,25.85
2022-09-03T10:58:28.231Z,25.83
2022-09-03T10:59:29.306Z,25.83
2022-09-03T11:00:28.243Z,25.86
2022-09-03T11:01:28.377Z,25.86
2022-09-03T11:02:28.324Z,25.89
2022-09-03T11:03:28.294Z,25.89
2022-09-03T11:04:28.292Z,25.90
2022-09-03T11:05:28.302Z,25.89
2022-09-03T11:06:28.304Z,25.86
2022-09-03T11:07:28.302Z,25.89
2022-09-03T11:08:28.342Z,25.91
2022-09-03T11:09:28.311Z,25.91
2022-09-03T11:10:31.212Z,25.96
2022-09-03T11:11:28.329Z,25.96
2022-09-03T11:12:28.357Z,25.96
2022-09-03T11:13:28.365Z,25.97
2022-09-03T11:14:28.379Z,25.97
2022-09-03T11:15:28.519Z,25.98
2022-09-03T11:16:28.428Z,25.97
2022-09-03T11:17:28.435Z,25.98
2022-09-03T11:18:28.467Z,25.97
2022-09-03T11:19:28.446Z,25.97
2022-09-03T11:20:28.480Z,25.97
2022-09-03T11:21:28.512Z,25.97
2022-09-03T11:22:28.535Z,25.97
2022-09-03T11:23:28.539Z,25.97
2022-09-03T11:24:28.540Z,25.96
2022-09-03T11:25:28.560Z,25.91
2022-09-03T11:26:28.583Z,25.91
2022-09-03T11:27:28.580Z,25.89
2022-09-03T11:28:28.612Z,25.86
2022-09-03T11:29:28.628Z,25.86
2022-09-03T11:30:28.663Z,25.89
2022-09-03T11:31:28.734Z,25.90
2022-09-03T11:32:28.705Z,25.91
2022-09-03T11:33:28.785Z,25.94
2022-09-03T11:34:32.302Z,25.96
2022-09-03T11:35:28.736Z,25.97
2022-09-03T11:36:28.765Z,26.03
2022-09-03T11:37:28.778Z,26.09
2022-09-03T11:38:29.035Z,26.11
2022-09-03T11:39:28.858Z,26.12
2022-09-03T11:40:28.832Z,26.13
2022-09-03T11:41:28.852Z,26.16
2022-09-03T11:42:28.824Z,26.12
2022-09-03T11:43:28.822Z,26.12
2022-09-03T11:44:28.855Z,26.12
2022-09-03T11:45:28.867Z,26.12
2022-09-03T11:46:28.948Z,26.13
2022-09-03T11:47:28.890Z,26.13
2022-09-03T11:48:28.903Z,26.13
2022-09-03T11:49:29.136Z,26.12
2022-09-03T11:50:28.999Z,26.13
2022-09-03T11:51:28.949Z,26.16
2022-09-03T11:52:28.976Z,26.16
2022-09-03T11:53:29.002Z,26.17
2022-09-03T11:54:29.118Z,26.17
2022-09-03T11:55:29.030Z,26.19
2022-09-03T11:56:29.043Z,26.20
2022-09-03T11:57:29.057Z,26.20
2022-09-03T11:58:29.059Z,26.21
2022-09-03T11:59:29.081Z,26.24
2022-09-03T12:00:29.105Z,26.23
2022-09-03T12:01:29.132Z,26.28
2022-09-03T12:02:29.193Z,26.31
2022-09-03T12:03:29.182Z,26.31
2022-09-03T12:04:29.241Z,26.32
2022-09-03T12:05:29.228Z,26.32
2022-09-03T12:06:29.213Z,26.34
2022-09-03T12:07:29.244Z,26.34
2022-09-03T12:08:29.292Z,26.34
2022-09-03T12:09:29.282Z,26.35
2022-09-03T12:10:29.323Z,26.36
2022-09-03T12:11:29.312Z,26.36
2022-09-03T12:12:29.328Z,26.38
2022-09-03T12:13:29.363Z,26.39
2022-09-03T12:14:29.386Z,26.41
2022-09-03T12:15:29.424Z,26.42
2022-09-03T12:16:29.585Z,26.46
2022-09-03T12:17:29.438Z,26.44
2022-09-03T12:18:29.471Z,26.47
2022-09-03T12:19:29.482Z,26.49
2022-09-03T12:20:29.519Z,26.50
2022-09-03T12:21:29.498Z,26.51
2022-09-03T12:22:29.491Z,26.53
2022-09-03T12:23:29.518Z,26.53
2022-09-03T12:24:29.519Z,26.53
2022-09-03T12:25:29.552Z,26.51
2022-09-03T12:26:29.581Z,26.50
2022-09-03T12:27:29.579Z,26.49
2022-09-03T12:28:29.614Z,26.49
2022-09-03T12:29:31.205Z,26.47
2022-09-03T12:30:29.727Z,26.47
2022-09-03T12:31:29.714Z,26.46
2022-09-03T12:32:29.668Z,26.46
2022-09-03T12:33:29.699Z,26.49
2022-09-03T12:34:29.711Z,26.49
2022-09-03T12:36:00.102Z,26.44
2022-09-03T12:36:29.749Z,26.42
2022-09-03T12:38:29.746Z,26.34
2022-09-03T12:40:29.854Z,26.29
2022-09-03T12:41:29.866Z,26.32
2022-09-03T12:42:29.779Z,26.35
2022-09-03T12:43:38.205Z,26.34
2022-09-03T12:44:29.832Z,26.34
2022-09-03T12:46:09.972Z,26.36
2022-09-03T12:46:32.381Z,26.36
2022-09-03T12:47:35.627Z,26.35
2022-09-03T12:48:29.893Z,26.35
2022-09-03T12:49:30.498Z,26.38
2022-09-03T12:50:29.928Z,26.36
2022-09-03T12:52:29.937Z,26.34
2022-09-03T12:53:29.970Z,26.32
2022-09-03T12:54:29.965Z,26.31
2022-09-03T12:55:29.998Z,26.31